Main page
METAR-TAF:

METAR-TAF

Airports :

Austin–Bergstrom International Airport

Austin, Texas, United States

latitude: 30-11-40N, longitude: 097-40-12W, elevation: 541 ft

Current weather observation

The report was made 58 minutes ago, at 03:53 UTC
Calm wind
Temperature 41°F
Humidity 87%
Pressure 30.33 in. Hg
Visibility: 10 miles
Scattered clouds at a height of 25000 ft

METAR: KAUS 210353Z 00000KT 10SM SCT250 05/03 A3033 RMK AO2 SLP274 T00500028

Time: 22:51 (04:51 UTC)

Forecast

The report was made 5 hours and 12 minutes ago, at 23:39 UTC
Forecast valid from 21 at 00 UTC to 22 at 06 UTC
Wind 9 mph from the North/Northeast
Visibility: 6 miles
Broken clouds at a height of 25000 ft
From 21 at 1500 UTC
Wind 6 mph from the East/Northeast
Visibility: 6 miles
Broken clouds at a height of 5000 ft
Probability 30%
from 21 at 22 UTC to 22 at 02 UTC
Visibility: 4 miles
Broken clouds at a height of 2500 ft
rain

TAF: KAUS 202339Z 2100/2206 02008KT P6SM BKN250 FM211500 06005KT P6SM BKN050 PROB30 2122/2202 4SM RA BKN025

Weather observations and forecasts of more than 4000 airports (METAR and TAF reports).

The available stations are represented by yellow and red dots on the map.

Hover mouse over dot to see the name of the station.

Then click to see weather observations and forecasts.

To change the map : click on the green buttons with a black cross to zoom in, on the green button with a dash to zoom out, or on the green arrows for adjacent maps.


METAR-TAF: